Pagrindinis puslapis
METAR-TAF:

METAR-TAF

Oro uostai :

Genuja, Italija

platuma: 44-25N, ilguma: 008-51E, Aukštis: 2 m

Dabartinis oras

Ataskaita buvo paskelbta 27 minutes, ne 20:50 UTC
Vėjas 3 kt iš Šiaurės/Šiaurės Rytų
Temperatūra 15°C
Drėgmė 33%
Slėgis 1022 hPa
Matomumas 10 km arba daugiau
nėra debesų žemiau 1500 m ir nėra kamuolinių lietaus debesų

METAR: LIMJ 092050Z 02003KT CAVOK 15/M01 Q1022

Laikas: 23:17 (21:17 UTC)

Prognozė

Ataskaita buvo paskelbta 4 valandos ir 17 minutes, ne 17:00 UTC
Prognozė galioja nuo 09 metu 18 UTC su 10 metu 18 UTC
Vėjas 5 kt nuo kintamojo kryptimis
Matomumas 10 km arba daugiau
nėra debesų žemiau 1500 m ir nėra kamuolinių lietaus debesų

TAF: LIMJ 091700Z 0918/1018 VRB05KT CAVOK

Orai ataskaitas ir orų prognozės (METAR, TAF).

turimą stotys yra geltonos ir raudonos taškus žemėlapyje.

Perkelti pele per norėdami pamatyti stoties vardą.

Tada spustelėkite, norėdami matyti oro stebėjimo ir prognozės.

Norėdami pakeisti žemėlapį: spustelėkite ant žalios mygtukų su juodo kryžiaus žemyn,; žalią mygtuką su brūkšneliu, jei norite nutolinti; arba žalių rodyklių gretimoms žemėlapius.


METAR-TAF: